createdAt,value
2022-10-06T00:00:46.194Z,102081.56
2022-10-06T00:03:15.410Z,102078.25
2022-10-06T00:05:44.563Z,102074.00
2022-10-06T00:08:14.208Z,102083.78
2022-10-06T00:10:42.647Z,102084.94
2022-10-06T00:13:11.085Z,102087.72
2022-10-06T00:15:40.125Z,102095.31
2022-10-06T00:18:15.458Z,102089.19
2022-10-06T00:20:46.842Z,102089.78
2022-10-06T00:23:14.930Z,102089.91
2022-10-06T00:25:44.343Z,102101.44
2022-10-06T00:28:14.415Z,102090.66
2022-10-06T00:30:43.915Z,102090.91
2022-10-06T00:33:16.069Z,102085.25
2022-10-06T00:35:45.325Z,102087.94
2022-10-06T00:40:54.722Z,102100.97
2022-10-06T00:43:50.931Z,102103.69
2022-10-06T00:46:29.075Z,102112.63
2022-10-06T00:49:04.586Z,102114.19
2022-10-06T00:51:35.556Z,102122.44
2022-10-06T00:54:06.038Z,102106.50
2022-10-06T00:56:45.697Z,102121.81
2022-10-06T00:59:16.658Z,102118.41
2022-10-06T01:01:51.814Z,102120.13
2022-10-06T01:04:24.651Z,102141.69
2022-10-06T01:06:59.190Z,102141.00
2022-10-06T01:09:29.425Z,102135.59
2022-10-06T01:12:03.398Z,102131.91
2022-10-06T01:14:35.054Z,102144.53
2022-10-06T01:17:07.889Z,102145.38
2022-10-06T01:19:48.851Z,102130.66
2022-10-06T01:22:18.939Z,102133.09
2022-10-06T01:24:52.734Z,102143.63
2022-10-06T01:27:23.426Z,102132.84
2022-10-06T01:29:54.711Z,102135.53
2022-10-06T01:32:28.658Z,102150.28
2022-10-06T01:34:56.851Z,102137.75
2022-10-06T01:37:25.854Z,102136.91
2022-10-06T01:39:58.366Z,102126.38
2022-10-06T01:42:31.967Z,102135.22
2022-10-06T01:45:01.004Z,102142.56
2022-10-06T01:47:29.583Z,102145.25
2022-10-06T01:49:58.068Z,102144.16
2022-10-06T01:52:26.687Z,102151.00
2022-10-06T01:54:56.499Z,102140.09
2022-10-06T01:57:24.674Z,102139.31
2022-10-06T01:59:54.932Z,102129.84
2022-10-06T02:02:23.517Z,102135.69
2022-10-06T02:04:51.747Z,102149.53
2022-10-06T02:07:20.238Z,102147.91
2022-10-06T02:09:50.257Z,102156.75
2022-10-06T02:12:26.149Z,102156.00
2022-10-06T02:14:54.276Z,102143.66
2022-10-06T02:17:23.120Z,102150.91
2022-10-06T02:19:57.112Z,102145.25
2022-10-06T02:22:25.590Z,102142.56
2022-10-06T02:24:54.709Z,102137.53
2022-10-06T02:27:25.080Z,102147.88
2022-10-06T02:29:53.180Z,102154.25
2022-10-06T02:32:21.870Z,102173.50
2022-10-06T02:34:50.032Z,102155.97
2022-10-06T02:37:18.280Z,102145.03
2022-10-06T02:39:46.556Z,102160.72
2022-10-06T02:42:15.249Z,102155.91
2022-10-06T02:44:44.866Z,102156.50
2022-10-06T02:47:14.870Z,102160.81
2022-10-06T02:49:43.346Z,102169.28
2022-10-06T02:52:14.254Z,102168.41
2022-10-06T02:54:48.101Z,102172.97
2022-10-06T02:57:23.836Z,102167.03
2022-10-06T02:59:53.644Z,102161.88
2022-10-06T03:02:22.260Z,102165.78
2022-10-06T03:04:50.944Z,102161.34
2022-10-06T03:07:19.097Z,102165.41
2022-10-06T03:09:47.321Z,102174.22
2022-10-06T03:12:15.667Z,102169.59
2022-10-06T03:14:45.700Z,102177.06
2022-10-06T03:17:15.968Z,102179.53
2022-10-06T03:19:44.155Z,102177.56
2022-10-06T03:22:17.026Z,102184.41
2022-10-06T03:24:45.624Z,102182.84
2022-10-06T03:27:13.781Z,102187.84
2022-10-06T03:29:42.009Z,102183.69
2022-10-06T03:32:14.024Z,102180.75
2022-10-06T03:34:44.308Z,102181.00
2022-10-06T03:37:13.229Z,102185.66
2022-10-06T03:39:42.357Z,102189.94
2022-10-06T03:42:12.121Z,102188.09
2022-10-06T03:44:43.065Z,102191.56
2022-10-06T03:47:16.850Z,102197.91
2022-10-06T03:49:47.396Z,102195.22
2022-10-06T03:52:15.847Z,102197.06
2022-10-06T03:54:44.204Z,102197.81
2022-10-06T03:57:12.334Z,102205.91
2022-10-06T03:59:49.984Z,102225.66
2022-10-06T04:02:18.801Z,102199.38
2022-10-06T04:04:50.310Z,102199.13
2022-10-06T04:07:24.433Z,102205.78
2022-10-06T04:09:53.366Z,102195.69
2022-10-06T04:12:22.070Z,102209.06
2022-10-06T04:14:51.104Z,102206.47
2022-10-06T04:17:23.866Z,102222.69
2022-10-06T04:19:53.805Z,102216.19
2022-10-06T04:22:22.360Z,102223.53
2022-10-06T04:24:51.081Z,102223.16
2022-10-06T04:27:34.270Z,102223.28
2022-10-06T04:30:03.907Z,102223.53
2022-10-06T04:32:32.438Z,102219.50
2022-10-06T04:35:07.396Z,102225.00
2022-10-06T04:37:35.991Z,102224.16
2022-10-06T04:43:26.320Z,102233.09
2022-10-06T04:49:54.188Z,102224.16
2022-10-06T04:52:31.897Z,102236.41
2022-10-06T04:55:04.482Z,102243.81
2022-10-06T04:57:45.947Z,102246.69
2022-10-06T05:00:48.516Z,102237.94
2022-10-06T05:03:43.786Z,102247.59
2022-10-06T05:06:17.092Z,102238.78
2022-10-06T05:09:05.993Z,102236.56
2022-10-06T05:12:31.781Z,102244.50
2022-10-06T05:21:51.565Z,102254.47
2022-10-06T05:24:36.814Z,102256.19
2022-10-06T05:27:06.819Z,102255.31
2022-10-06T05:29:36.526Z,102262.19
2022-10-06T05:32:07.811Z,102261.59
2022-10-06T05:34:36.794Z,102253.22
2022-10-06T05:37:09.236Z,102248.41
2022-10-06T05:46:06.804Z,102255.78
2022-10-06T05:48:36.229Z,102269.75
2022-10-06T05:51:07.103Z,102262.78
2022-10-06T05:53:39.084Z,102268.19
2022-10-06T05:56:19.682Z,102266.88
2022-10-06T05:58:53.469Z,102266.75
2022-10-06T06:01:30.341Z,102275.38
2022-10-06T06:06:57.078Z,102288.88
2022-10-06T06:09:36.770Z,102288.03
2022-10-06T06:12:10.247Z,102281.56
2022-10-06T06:17:18.188Z,102282.13
2022-10-06T06:20:04.825Z,102281.69
2022-10-06T06:22:33.321Z,102299.47
2022-10-06T06:27:45.633Z,102305.06
2022-10-06T06:30:14.467Z,102303.63
2022-10-06T06:32:43.265Z,102296.00
2022-10-06T06:35:14.458Z,102304.94
2022-10-06T06:38:05.914Z,102304.22
2022-10-06T06:40:35.834Z,102305.69
2022-10-06T06:43:06.092Z,102304.84
2022-10-06T06:45:38.134Z,102303.47
2022-10-06T06:48:09.256Z,102303.34
2022-10-06T06:50:37.835Z,102314.47
2022-10-06T06:53:11.713Z,102307.00
2022-10-06T06:55:51.591Z,102304.69
2022-10-06T06:58:58.268Z,102315.13
2022-10-06T07:04:22.467Z,102333.31
2022-10-06T07:06:58.472Z,102332.03
2022-10-06T07:09:32.691Z,102326.28
2022-10-06T07:12:01.174Z,102325.41
2022-10-06T07:14:31.544Z,102333.50
2022-10-06T07:17:17.231Z,102336.09
2022-10-06T07:20:03.442Z,102328.09
2022-10-06T07:22:52.383Z,102333.75
2022-10-06T07:25:26.243Z,102330.78
2022-10-06T07:27:56.277Z,102336.94
2022-10-06T07:30:29.015Z,102334.97
2022-10-06T07:32:57.566Z,102345.53
2022-10-06T07:35:26.469Z,102334.19
2022-10-06T07:37:54.924Z,102340.69
2022-10-06T07:40:23.532Z,102337.09
2022-10-06T07:42:52.622Z,102352.91
2022-10-06T07:45:42.378Z,102361.09
2022-10-06T07:48:15.602Z,102360.09
2022-10-06T07:50:44.599Z,102362.41
2022-10-06T07:53:13.526Z,102377.50
2022-10-06T07:55:46.579Z,102377.50
2022-10-06T08:01:07.239Z,102373.63
2022-10-06T08:03:38.959Z,102378.13
2022-10-06T08:06:09.823Z,102378.59
2022-10-06T08:08:41.313Z,102372.63
2022-10-06T08:11:10.394Z,102373.59
2022-10-06T08:13:40.487Z,102374.47
2022-10-06T08:16:11.806Z,102375.41
2022-10-06T08:18:46.447Z,102376.50
2022-10-06T08:21:31.083Z,102383.22
2022-10-06T08:24:00.284Z,102377.81
2022-10-06T08:26:30.235Z,102383.38
2022-10-06T08:29:03.469Z,102389.69
2022-10-06T08:31:33.182Z,102388.09
2022-10-06T08:34:03.098Z,102391.06
2022-10-06T08:36:32.622Z,102397.56
2022-10-06T08:39:01.281Z,102397.06
2022-10-06T08:41:39.834Z,102399.53
2022-10-06T08:44:21.979Z,102393.13
2022-10-06T08:46:56.818Z,102401.69
2022-10-06T08:49:31.275Z,102403.41
2022-10-06T08:52:07.033Z,102400.84
2022-10-06T08:54:43.063Z,102391.16
2022-10-06T08:57:22.443Z,102389.03
2022-10-06T08:59:54.491Z,102390.69
2022-10-06T09:02:30.259Z,102385.59
2022-10-06T09:05:05.085Z,102393.31
2022-10-06T09:07:41.262Z,102387.50
2022-10-06T09:10:26.015Z,102392.84
2022-10-06T09:13:00.758Z,102396.72
2022-10-06T09:15:35.569Z,102403.03
2022-10-06T09:18:11.037Z,102410.63
2022-10-06T09:20:49.641Z,102417.94
2022-10-06T09:23:39.307Z,102425.28
2022-10-06T09:26:12.224Z,102428.31
2022-10-06T09:28:40.843Z,102426.38
2022-10-06T09:31:21.586Z,102410.59
2022-10-06T09:33:53.282Z,102422.91
2022-10-06T09:36:24.270Z,102420.91
2022-10-06T09:38:56.874Z,102419.63
2022-10-06T09:41:29.842Z,102437.50
2022-10-06T09:44:00.033Z,102429.94
2022-10-06T09:46:34.263Z,102439.03
2022-10-06T09:49:23.789Z,102436.59
2022-10-06T09:52:10.141Z,102435.59
2022-10-06T09:54:38.918Z,102441.47
2022-10-06T09:57:17.291Z,102450.94
2022-10-06T09:59:48.188Z,102446.38
2022-10-06T10:02:31.840Z,102448.50
2022-10-06T10:05:00.496Z,102467.78
2022-10-06T10:07:37.058Z,102466.81
2022-10-06T10:10:24.311Z,102448.63
2022-10-06T10:12:55.945Z,102454.16
2022-10-06T10:15:39.349Z,102447.72
2022-10-06T10:18:16.963Z,102447.84
2022-10-06T10:20:52.656Z,102448.81
2022-10-06T10:23:31.581Z,102436.31
2022-10-06T10:26:17.736Z,102435.91
2022-10-06T10:29:18.986Z,102455.09
2022-10-06T10:31:56.421Z,102442.06
2022-10-06T10:34:46.572Z,102439.84
2022-10-06T10:37:20.327Z,102445.19
2022-10-06T10:39:56.843Z,102462.50
2022-10-06T10:42:33.919Z,102446.91
2022-10-06T10:45:06.628Z,102449.22
2022-10-06T10:47:39.504Z,102445.13
2022-10-06T10:50:14.634Z,102450.72
2022-10-06T10:52:45.649Z,102453.03
2022-10-06T10:55:27.290Z,102432.22
2022-10-06T10:57:58.795Z,102441.34
2022-10-06T11:00:32.556Z,102455.94
2022-10-06T11:03:03.065Z,102447.38
2022-10-06T11:05:48.371Z,102455.25
2022-10-06T11:08:25.196Z,102450.06
2022-10-06T11:10:58.991Z,102434.91
2022-10-06T11:13:34.278Z,102434.41
2022-10-06T11:16:17.256Z,102442.56
2022-10-06T11:18:59.319Z,102440.41
2022-10-06T11:21:33.016Z,102436.69
2022-10-06T11:24:06.128Z,102448.72
2022-10-06T11:26:50.406Z,102437.28
2022-10-06T11:29:30.995Z,102442.56
2022-10-06T11:32:12.314Z,102435.53
2022-10-06T11:34:42.484Z,102433.22
2022-10-06T11:37:21.404Z,102432.22
2022-10-06T11:39:59.053Z,102423.66
2022-10-06T11:42:37.934Z,102423.50
2022-10-06T11:45:13.942Z,102417.53
2022-10-06T11:48:05.986Z,102429.38
2022-10-06T11:50:36.620Z,102436.97
2022-10-06T11:53:05.916Z,102417.59
2022-10-06T11:55:34.905Z,102410.16
2022-10-06T11:58:41.550Z,102415.91
2022-10-06T12:01:04.124Z,102437.78
2022-10-06T12:03:50.050Z,102428.09
2022-10-06T12:06:53.292Z,102417.31
2022-10-06T12:09:28.827Z,102421.56
2022-10-06T12:11:59.338Z,102427.19
2022-10-06T12:16:54.593Z,102420.72
2022-10-06T12:17:34.508Z,102425.84
2022-10-06T12:20:18.944Z,102411.06
2022-10-06T12:22:52.513Z,102408.94
2022-10-06T12:25:28.312Z,102405.34
2022-10-06T12:28:10.992Z,102422.31
2022-10-06T12:30:57.597Z,102419.19
2022-10-06T12:33:38.774Z,102409.88
2022-10-06T12:36:18.793Z,102418.56
2022-10-06T12:39:04.752Z,102406.06
2022-10-06T12:42:03.964Z,102397.63
2022-10-06T12:44:38.602Z,102411.81
2022-10-06T12:47:19.202Z,102409.72
2022-10-06T12:49:53.916Z,102398.38
2022-10-06T12:52:38.263Z,102397.44
2022-10-06T12:55:22.520Z,102398.03
2022-10-06T12:57:53.518Z,102392.56
2022-10-06T13:00:50.063Z,102387.34
2022-10-06T13:06:11.267Z,102389.06
2022-10-06T13:08:41.550Z,102389.34
2022-10-06T13:11:21.641Z,102379.97
2022-10-06T13:13:51.471Z,102374.41
2022-10-06T13:16:21.977Z,102365.59
2022-10-06T13:18:56.384Z,102369.91
2022-10-06T13:21:26.151Z,102365.94
2022-10-06T13:24:16.978Z,102370.69
2022-10-06T13:26:49.130Z,102366.47
2022-10-06T13:29:24.339Z,102358.19
2022-10-06T13:32:08.447Z,102353.81
2022-10-06T13:34:43.612Z,102355.22
2022-10-06T13:37:32.220Z,102358.63
2022-10-06T13:40:08.910Z,102353.81
2022-10-06T13:42:49.408Z,102346.31
2022-10-06T13:45:20.593Z,102356.25
2022-10-06T13:48:03.257Z,102350.63
2022-10-06T13:50:49.524Z,102355.94
2022-10-06T13:53:32.414Z,102355.34
2022-10-06T13:56:01.197Z,102350.00
2022-10-06T13:58:33.340Z,102346.81
2022-10-06T14:01:07.411Z,102343.81
2022-10-06T14:06:16.759Z,102343.72
2022-10-06T14:08:56.335Z,102327.25
2022-10-06T14:11:29.274Z,102338.25
2022-10-06T14:14:03.068Z,102335.03
2022-10-06T14:16:34.953Z,102335.41
2022-10-06T14:19:13.181Z,102335.00
2022-10-06T14:22:00.425Z,102341.72
2022-10-06T14:24:38.547Z,102343.53
2022-10-06T14:27:10.265Z,102319.31
2022-10-06T14:29:46.701Z,102334.94
2022-10-06T14:32:16.665Z,102340.03
2022-10-06T14:34:49.852Z,102328.66
2022-10-06T14:37:22.798Z,102327.72
2022-10-06T14:39:52.904Z,102323.50
2022-10-06T14:42:31.561Z,102323.31
2022-10-06T14:45:01.828Z,102320.88
2022-10-06T14:47:42.258Z,102320.56
2022-10-06T14:50:14.784Z,102328.66
2022-10-06T14:52:50.782Z,102310.03
2022-10-06T14:55:19.583Z,102301.81
2022-10-06T14:57:47.763Z,102306.66
2022-10-06T15:00:17.036Z,102297.53
2022-10-06T15:02:45.879Z,102295.13
2022-10-06T15:05:14.717Z,102293.75
2022-10-06T15:08:00.771Z,102295.16
2022-10-06T15:10:32.696Z,102323.41
2022-10-06T15:13:00.836Z,102301.94
2022-10-06T15:15:29.742Z,102299.06
2022-10-06T15:17:57.948Z,102294.06
2022-10-06T15:20:27.080Z,102292.84
2022-10-06T15:22:55.511Z,102289.72
2022-10-06T15:25:42.182Z,102287.00
2022-10-06T15:28:32.449Z,102285.34
2022-10-06T15:31:03.773Z,102292.19
2022-10-06T15:33:36.815Z,102295.91
2022-10-06T15:36:25.037Z,102284.56
2022-10-06T15:38:55.524Z,102284.00
2022-10-06T15:41:24.789Z,102272.81
2022-10-06T15:43:56.158Z,102276.44
2022-10-06T15:46:30.296Z,102272.19
2022-10-06T15:49:06.002Z,102261.13
2022-10-06T15:51:37.392Z,102271.88
2022-10-06T15:54:06.155Z,102276.66
2022-10-06T15:56:35.241Z,102264.91
2022-10-06T15:59:07.248Z,102258.94
2022-10-06T16:01:43.192Z,102264.03
2022-10-06T16:04:35.149Z,102255.50
2022-10-06T16:07:06.354Z,102249.69
2022-10-06T16:09:47.110Z,102263.59
2022-10-06T16:12:28.626Z,102249.28
2022-10-06T16:15:34.372Z,102240.84
2022-10-06T16:18:09.340Z,102249.16
2022-10-06T16:20:37.451Z,102244.91
2022-10-06T16:23:05.512Z,102245.75
2022-10-06T16:25:36.516Z,102241.22
2022-10-06T16:28:04.790Z,102246.19
2022-10-06T16:30:34.555Z,102243.66
2022-10-06T16:33:06.928Z,102234.56
2022-10-06T16:35:35.637Z,102235.47
2022-10-06T16:38:06.857Z,102237.19
2022-10-06T16:40:54.956Z,102234.25
2022-10-06T16:43:24.731Z,102240.00
2022-10-06T16:46:06.290Z,102241.16
2022-10-06T16:48:41.357Z,102225.25
2022-10-06T16:54:26.922Z,102226.34
2022-10-06T16:57:19.360Z,102229.75
2022-10-06T16:59:52.288Z,102224.56
2022-10-06T17:02:42.156Z,102228.03
2022-10-06T17:05:14.669Z,102228.47
2022-10-06T17:07:43.275Z,102217.38
2022-10-06T17:10:21.111Z,102214.81
2022-10-06T17:12:52.724Z,102216.44
2022-10-06T17:15:21.539Z,102219.38
2022-10-06T17:18:11.539Z,102208.81
2022-10-06T17:20:41.892Z,102216.19
2022-10-06T17:23:10.954Z,102217.28
2022-10-06T17:25:39.900Z,102216.59
2022-10-06T17:28:08.275Z,102207.56
2022-10-06T17:30:37.491Z,102212.47
2022-10-06T17:33:15.403Z,102213.38
2022-10-06T17:35:44.353Z,102212.09
2022-10-06T17:38:14.228Z,102211.44
2022-10-06T17:40:44.776Z,102220.25
2022-10-06T17:43:12.927Z,102212.56
2022-10-06T17:45:42.114Z,102220.13
2022-10-06T17:48:12.409Z,102218.69
2022-10-06T17:50:41.559Z,102225.97
2022-10-06T17:53:09.554Z,102214.88
2022-10-06T17:55:37.693Z,102213.75
2022-10-06T17:58:08.337Z,102217.16
2022-10-06T18:00:36.559Z,102216.59
2022-10-06T18:03:05.215Z,102207.34
2022-10-06T18:05:34.812Z,102210.91
2022-10-06T18:08:03.095Z,102217.47
2022-10-06T18:10:48.357Z,102223.72
2022-10-06T18:13:16.559Z,102222.59
2022-10-06T18:15:44.915Z,102217.34
2022-10-06T18:18:13.715Z,102219.75
2022-10-06T18:20:44.592Z,102221.47
2022-10-06T18:23:14.551Z,102220.06
2022-10-06T18:25:42.958Z,102214.63
2022-10-06T18:28:12.179Z,102222.59
2022-10-06T18:30:42.766Z,102217.47
2022-10-06T18:36:14.710Z,102221.28
2022-10-06T18:38:47.522Z,102219.13
2022-10-06T18:41:19.616Z,102226.53
2022-10-06T18:43:47.806Z,102223.81
2022-10-06T18:46:35.184Z,102213.28
2022-10-06T18:49:10.749Z,102220.53
2022-10-06T18:51:43.415Z,102214.56
2022-10-06T18:54:15.949Z,102217.97
2022-10-06T18:56:51.228Z,102210.88
2022-10-06T18:59:25.231Z,102211.56
2022-10-06T19:01:54.631Z,102208.84
2022-10-06T19:04:24.293Z,102208.00
2022-10-06T19:06:55.632Z,102211.56
2022-10-06T19:09:26.895Z,102215.13
2022-10-06T19:12:00.109Z,102208.44
2022-10-06T19:14:33.237Z,102210.00
2022-10-06T19:17:04.220Z,102210.00
2022-10-06T19:19:34.098Z,102209.44
2022-10-06T19:22:05.583Z,102203.88
2022-10-06T19:24:41.607Z,102202.91
2022-10-06T19:27:14.122Z,102204.28
2022-10-06T19:29:46.263Z,102199.44
2022-10-06T19:32:32.436Z,102193.59
2022-10-06T19:35:21.157Z,102203.16
2022-10-06T19:38:09.379Z,102193.34
2022-10-06T19:41:00.246Z,102197.75
2022-10-06T19:43:29.689Z,102203.28
2022-10-06T19:45:58.725Z,102200.84
2022-10-06T19:48:27.776Z,102189.75
2022-10-06T19:51:05.453Z,102189.31
2022-10-06T19:53:43.461Z,102199.84
2022-10-06T19:56:12.279Z,102196.16
2022-10-06T19:58:41.536Z,102193.72
2022-10-06T20:01:28.004Z,102187.31
2022-10-06T20:04:02.322Z,102200.41
2022-10-06T20:06:52.756Z,102198.97
2022-10-06T20:09:36.660Z,102199.97
2022-10-06T20:12:10.159Z,102191.03
2022-10-06T20:14:41.217Z,102187.47
2022-10-06T20:17:09.483Z,102192.03
2022-10-06T20:19:43.289Z,102191.72
2022-10-06T20:22:13.490Z,102188.03
2022-10-06T20:25:13.458Z,102186.47
2022-10-06T20:27:41.916Z,102183.06
2022-10-06T20:30:12.731Z,102182.06
2022-10-06T20:32:42.225Z,102181.22
2022-10-06T20:35:11.283Z,102182.50
2022-10-06T20:37:42.044Z,102174.66
2022-10-06T20:40:30.253Z,102182.06
2022-10-06T20:43:01.043Z,102176.94
2022-10-06T20:45:32.540Z,102165.53
2022-10-06T20:48:08.796Z,102173.63
2022-10-06T20:50:37.734Z,102162.38
2022-10-06T20:59:13.755Z,102162.50
2022-10-06T21:02:05.269Z,102173.75
2022-10-06T21:05:04.098Z,102173.56
2022-10-06T21:07:45.426Z,102165.03
2022-10-06T21:10:14.409Z,102171.44
2022-10-06T21:13:13.893Z,102162.16
2022-10-06T21:15:58.131Z,102165.41
2022-10-06T21:24:11.199Z,102154.81
2022-10-06T21:26:45.017Z,102153.94
2022-10-06T21:29:20.611Z,102159.84
2022-10-06T21:32:10.316Z,102158.84
2022-10-06T21:34:40.352Z,102155.47
2022-10-06T21:37:13.702Z,102145.63
2022-10-06T21:42:57.808Z,102145.34
2022-10-06T21:49:21.526Z,102131.38
2022-10-06T21:55:24.676Z,102119.13
2022-10-06T22:01:57.584Z,102112.59
2022-10-06T22:12:04.157Z,102110.69
2022-10-06T22:14:35.755Z,102112.94
2022-10-06T22:17:06.493Z,102101.00
2022-10-06T22:19:34.585Z,102107.88
2022-10-06T22:22:07.842Z,102098.34
2022-10-06T22:24:39.854Z,102093.69
2022-10-06T22:27:12.049Z,102099.66
2022-10-06T22:29:43.932Z,102100.09
2022-10-06T22:32:18.310Z,102096.84
2022-10-06T22:34:50.629Z,102083.19
2022-10-06T22:37:20.391Z,102077.19
2022-10-06T22:39:49.122Z,102080.31
2022-10-06T22:42:18.431Z,102080.06
2022-10-06T22:44:56.115Z,102076.19
2022-10-06T22:47:43.762Z,102073.06
2022-10-06T22:50:12.025Z,102067.94
2022-10-06T22:52:46.836Z,102063.53
2022-10-06T22:55:18.947Z,102057.53
2022-10-06T22:57:55.946Z,102060.66
2022-10-06T23:00:27.934Z,102056.97
2022-10-06T23:03:08.075Z,102061.53
2022-10-06T23:05:36.958Z,102056.38
2022-10-06T23:08:12.147Z,102049.00
2022-10-06T23:10:41.020Z,102041.56
2022-10-06T23:13:16.358Z,102053.25
2022-10-06T23:15:50.235Z,102047.56
2022-10-06T23:18:21.997Z,102040.16
2022-10-06T23:20:57.526Z,102039.88
2022-10-06T23:23:45.675Z,102039.88
2022-10-06T23:26:34.490Z,102032.91
2022-10-06T23:29:04.788Z,102032.19
2022-10-06T23:31:45.012Z,102028.22
2022-10-06T23:34:25.731Z,102025.34
2022-10-06T23:36:57.014Z,102026.09
2022-10-06T23:39:39.748Z,102024.22
2022-10-06T23:42:26.154Z,102032.59
2022-10-06T23:44:57.854Z,102016.22
2022-10-06T23:47:44.885Z,102013.69
2022-10-06T23:50:17.776Z,101998.19
2022-10-06T23:52:46.080Z,101998.59
2022-10-06T23:55:33.639Z,101990.34
2022-10-06T23:58:08.108Z,101989.19
